createdAt,value
2022-09-26T00:01:59.313Z,100270.28
2022-09-26T00:05:02.283Z,100264.53
2022-09-26T00:07:39.480Z,100255.56
2022-09-26T00:10:22.216Z,100283.81
2022-09-26T00:13:04.437Z,100270.66
2022-09-26T00:15:40.035Z,100305.22
2022-09-26T00:18:19.238Z,100259.97
2022-09-26T00:24:10.860Z,100291.91
2022-09-26T00:27:01.492Z,100264.78
2022-09-26T00:29:36.853Z,100290.38
2022-09-26T00:32:08.784Z,100264.63
2022-09-26T00:34:41.146Z,100277.16
2022-09-26T00:37:47.694Z,100238.34
2022-09-26T00:40:16.936Z,100241.22
2022-09-26T00:43:03.039Z,100240.59
2022-09-26T00:45:39.846Z,100239.97
2022-09-26T00:48:22.591Z,100279.91
2022-09-26T00:51:33.520Z,100243.28
2022-09-26T00:54:03.410Z,100257.13
2022-09-26T00:56:49.907Z,100232.97
2022-09-26T00:59:28.740Z,100216.13
2022-09-26T01:02:01.345Z,100250.13
2022-09-26T01:04:33.216Z,100223.97
2022-09-26T01:07:51.926Z,100260.50
2022-09-26T01:10:23.122Z,100238.09
2022-09-26T01:16:01.478Z,100208.03
2022-09-26T01:18:28.641Z,100243.47
2022-09-26T01:21:01.420Z,100259.78
2022-09-26T01:23:58.402Z,100205.72
2022-09-26T01:26:59.649Z,100248.22
2022-09-26T01:30:04.605Z,100205.94
2022-09-26T01:33:02.435Z,100214.69
2022-09-26T01:35:58.409Z,100223.06
2022-09-26T01:38:51.685Z,100238.69
2022-09-26T01:41:45.506Z,100214.47
2022-09-26T01:44:30.377Z,100235.38
2022-09-26T01:47:14.720Z,100210.97
2022-09-26T01:49:41.143Z,100216.81
2022-09-26T01:52:20.702Z,100228.38
2022-09-26T01:54:57.035Z,100195.78
2022-09-26T01:57:30.901Z,100202.69
2022-09-26T02:00:04.173Z,100191.44
2022-09-26T02:02:36.401Z,100189.91
2022-09-26T02:05:16.413Z,100159.47
2022-09-26T02:07:48.888Z,100151.94
2022-09-26T02:10:34.851Z,100193.28
2022-09-26T02:13:11.534Z,100188.03
2022-09-26T02:15:40.514Z,100167.72
2022-09-26T02:18:17.287Z,100202.75
2022-09-26T02:20:50.655Z,100130.38
2022-09-26T02:23:17.627Z,100189.50
2022-09-26T02:25:44.160Z,100177.47
2022-09-26T02:28:10.893Z,100184.25
2022-09-26T02:30:37.783Z,100193.34
2022-09-26T02:33:04.588Z,100160.06
2022-09-26T02:35:49.667Z,100184.91
2022-09-26T02:38:17.570Z,100173.81
2022-09-26T02:40:52.062Z,100160.50
2022-09-26T02:43:37.433Z,100174.91
2022-09-26T02:46:28.992Z,100169.91
2022-09-26T02:49:04.599Z,100176.06
2022-09-26T02:51:44.645Z,100147.03
2022-09-26T02:54:23.074Z,100138.06
2022-09-26T02:56:56.989Z,100139.66
2022-09-26T02:59:41.029Z,100113.50
2022-09-26T03:02:19.585Z,100166.41
2022-09-26T03:04:58.195Z,100168.47
2022-09-26T03:07:33.151Z,100113.97
2022-09-26T03:10:01.436Z,100147.00
2022-09-26T03:12:31.002Z,100152.88
2022-09-26T03:15:02.030Z,100156.50
2022-09-26T03:17:34.400Z,100139.31
2022-09-26T03:20:13.114Z,100124.03
2022-09-26T03:22:40.463Z,100133.28
2022-09-26T03:25:09.463Z,100114.75
2022-09-26T03:27:38.662Z,100137.81
2022-09-26T03:30:05.931Z,100141.56
2022-09-26T03:32:32.487Z,100112.84
2022-09-26T03:34:58.973Z,100121.97
2022-09-26T03:37:25.511Z,100117.69
2022-09-26T03:39:52.147Z,100102.22
2022-09-26T03:42:18.688Z,100104.44
2022-09-26T03:44:45.224Z,100125.09
2022-09-26T03:47:12.798Z,100118.13
2022-09-26T03:49:39.232Z,100144.84
2022-09-26T03:52:07.461Z,100140.38
2022-09-26T03:54:33.928Z,100119.25
2022-09-26T03:57:00.472Z,100088.19
2022-09-26T03:59:40.123Z,100124.47
2022-09-26T04:02:06.736Z,100071.44
2022-09-26T04:04:33.426Z,100080.69
2022-09-26T04:07:00.625Z,100094.44
2022-09-26T04:09:27.372Z,100116.66
2022-09-26T04:11:54.133Z,100114.63
2022-09-26T04:14:20.891Z,100093.16
2022-09-26T04:16:47.346Z,100119.91
2022-09-26T04:19:14.873Z,100086.53
2022-09-26T04:21:42.298Z,100069.63
2022-09-26T04:24:14.483Z,100052.53
2022-09-26T04:26:43.366Z,100105.22
2022-09-26T04:29:10.550Z,100073.88
2022-09-26T04:32:10.954Z,100046.97
2022-09-26T04:34:39.444Z,100090.75
2022-09-26T04:37:07.007Z,100080.56
2022-09-26T04:39:37.201Z,100092.09
2022-09-26T04:42:04.477Z,100061.59
2022-09-26T04:44:31.064Z,100074.00
2022-09-26T04:46:57.651Z,100050.19
2022-09-26T04:49:24.240Z,100075.94
2022-09-26T04:51:53.965Z,100052.38
2022-09-26T04:54:20.487Z,100060.84
2022-09-26T04:56:47.381Z,100050.41
2022-09-26T04:59:14.681Z,100040.69
2022-09-26T05:01:41.967Z,100035.84
2022-09-26T05:07:15.970Z,100084.47
2022-09-26T05:07:49.917Z,100030.78
2022-09-26T05:10:56.391Z,100091.50
2022-09-26T05:13:27.350Z,100047.88
2022-09-26T05:39:06.569Z,100052.84
2022-09-26T05:41:34.101Z,100027.78
2022-09-26T05:51:47.480Z,100031.06
2022-09-26T06:55:45.595Z,100040.22
2022-09-26T07:01:15.364Z,100007.41
2022-09-26T07:03:45.651Z,99999.00
2022-09-26T08:10:50.418Z,100010.25
2022-09-26T08:17:04.524Z,100007.41
2022-09-26T08:19:31.487Z,100006.13
2022-09-26T08:22:19.830Z,99975.00
2022-09-26T08:24:57.274Z,99997.19
2022-09-26T08:27:34.586Z,99977.06
2022-09-26T08:30:15.657Z,99975.97
2022-09-26T08:55:22.730Z,99937.69
2022-09-26T08:58:16.210Z,99971.00
2022-09-26T09:00:49.418Z,99991.16
2022-09-26T09:03:34.798Z,99961.56
2022-09-26T09:06:14.000Z,99983.00
2022-09-26T09:09:12.382Z,99933.34
2022-09-26T09:31:06.704Z,99900.94
2022-09-26T09:42:23.877Z,99952.31
2022-09-26T09:45:09.922Z,99916.41
2022-09-26T09:47:47.898Z,99892.88
2022-09-26T09:50:20.281Z,99901.56
2022-09-26T09:52:56.808Z,99941.91
2022-09-26T09:59:13.735Z,99901.53
2022-09-26T10:01:47.975Z,99920.94
2022-09-26T10:04:38.259Z,99881.41
2022-09-26T10:07:05.745Z,99896.13
2022-09-26T10:09:40.748Z,99863.25
2022-09-26T10:12:35.361Z,99907.97
2022-09-26T10:15:12.625Z,99904.88
2022-09-26T10:17:39.458Z,99849.75
2022-09-26T10:23:39.918Z,99889.47
2022-09-26T10:26:49.419Z,99848.94
2022-09-26T10:29:34.824Z,99855.53
2022-09-26T10:32:15.522Z,99849.56
2022-09-26T10:41:42.464Z,99840.91
2022-09-26T10:44:31.602Z,99878.66
2022-09-26T10:47:00.629Z,99843.53
2022-09-26T10:50:40.705Z,99876.34
2022-09-26T10:53:50.717Z,99816.25
2022-09-26T10:56:55.615Z,99838.59
2022-09-26T10:59:36.725Z,99830.41
2022-09-26T11:02:05.583Z,99862.13
2022-09-26T11:07:52.721Z,99835.03
2022-09-26T11:10:37.329Z,99861.34
2022-09-26T11:13:26.657Z,99838.97
2022-09-26T11:16:09.903Z,99811.84
2022-09-26T11:18:54.312Z,99862.91
2022-09-26T11:37:23.519Z,99807.22
2022-09-26T11:40:28.965Z,99831.16
2022-09-26T11:43:08.924Z,99831.25
2022-09-26T11:45:53.459Z,99810.13
2022-09-26T11:48:54.901Z,99794.97
2022-09-26T11:51:31.764Z,99807.41
2022-09-26T11:54:23.682Z,99774.16
2022-09-26T11:57:58.939Z,99797.22
2022-09-26T12:11:49.351Z,99755.75
2022-09-26T12:14:47.879Z,99727.31
2022-09-26T12:17:23.143Z,99777.94
2022-09-26T12:20:08.140Z,99772.91
2022-09-26T12:27:11.217Z,99728.78
2022-09-26T12:30:05.939Z,99728.13
2022-09-26T12:32:59.010Z,99742.72
2022-09-26T12:35:31.782Z,99764.00
2022-09-26T12:38:31.845Z,99704.69
2022-09-26T12:49:15.342Z,99701.97
2022-09-26T12:51:47.445Z,99735.22
2022-09-26T12:55:31.693Z,99725.16
2022-09-26T12:58:12.219Z,99700.66
2022-09-26T13:08:57.719Z,99726.25
2022-09-26T13:15:36.710Z,99727.97
2022-09-26T13:18:13.931Z,99710.25
2022-09-26T13:20:53.459Z,99657.13
2022-09-26T13:23:41.100Z,99657.63
2022-09-26T13:37:37.928Z,99684.50
2022-09-26T13:40:28.174Z,99631.38
2022-09-26T13:46:39.117Z,99637.06
2022-09-26T13:49:37.014Z,99677.38
2022-09-26T13:52:15.529Z,99676.38
2022-09-26T13:55:04.615Z,99643.66
2022-09-26T13:57:36.235Z,99636.41
2022-09-26T14:00:34.203Z,99611.78
2022-09-26T14:03:16.840Z,99671.97
2022-09-26T14:05:43.713Z,99661.69
2022-09-26T14:08:50.075Z,99666.78
2022-09-26T14:11:30.421Z,99638.06
2022-09-26T14:14:24.126Z,99647.00
2022-09-26T14:16:54.864Z,99653.91
2022-09-26T14:19:39.337Z,99652.41
2022-09-26T14:22:58.955Z,99594.78
2022-09-26T14:25:44.286Z,99637.59
2022-09-26T14:28:17.417Z,99622.41
2022-09-26T14:31:11.384Z,99572.69
2022-09-26T14:33:38.969Z,99574.19
2022-09-26T14:36:27.048Z,99592.06
2022-09-26T14:38:56.868Z,99558.72
2022-09-26T14:41:28.659Z,99545.91
2022-09-26T14:44:02.878Z,99592.91
2022-09-26T14:46:39.654Z,99578.25
2022-09-26T14:49:10.314Z,99594.38
2022-09-26T14:52:11.391Z,99563.19
2022-09-26T14:54:40.420Z,99544.84
2022-09-26T14:57:21.060Z,99572.69
2022-09-26T14:59:48.924Z,99588.69
2022-09-26T15:02:38.945Z,99585.97
2022-09-26T15:05:10.795Z,99600.66
2022-09-26T15:12:20.057Z,99583.66
2022-09-26T15:14:57.272Z,99583.66
2022-09-26T15:17:35.021Z,99575.22
2022-09-26T15:20:26.031Z,99573.19
2022-09-26T15:22:57.328Z,99559.38
2022-09-26T15:25:37.040Z,99534.94
2022-09-26T15:28:05.863Z,99534.09
2022-09-26T15:30:40.977Z,99555.31
2022-09-26T15:33:16.670Z,99555.50
2022-09-26T15:35:52.874Z,99531.75
2022-09-26T15:38:22.788Z,99561.03
2022-09-26T15:41:03.027Z,99524.47
2022-09-26T15:43:35.020Z,99553.81
2022-09-26T15:46:30.218Z,99517.22
2022-09-26T15:49:20.635Z,99542.69
2022-09-26T15:51:58.076Z,99523.97
2022-09-26T15:54:33.053Z,99529.88
2022-09-26T15:57:03.105Z,99519.25
2022-09-26T15:59:40.763Z,99502.09
2022-09-26T16:02:24.197Z,99553.97
2022-09-26T16:04:55.022Z,99543.50
2022-09-26T16:07:25.349Z,99518.56
2022-09-26T16:09:52.556Z,99531.38
2022-09-26T16:12:23.939Z,99513.44
2022-09-26T16:15:05.870Z,99530.59
2022-09-26T16:17:49.455Z,99510.28
2022-09-26T16:20:16.022Z,99543.63
2022-09-26T16:23:00.435Z,99540.47
2022-09-26T16:25:47.920Z,99544.28
2022-09-26T16:28:52.498Z,99544.06
2022-09-26T16:31:27.203Z,99530.53
2022-09-26T16:34:17.311Z,99529.13
2022-09-26T16:36:45.911Z,99504.53
2022-09-26T16:39:25.045Z,99519.41
2022-09-26T16:42:14.491Z,99533.50
2022-09-26T16:44:50.927Z,99514.88
2022-09-26T16:47:44.171Z,99521.41
2022-09-26T16:50:16.794Z,99533.38
2022-09-26T16:52:45.987Z,99498.44
2022-09-26T16:55:16.248Z,99470.09
2022-09-26T16:57:58.495Z,99500.13
2022-09-26T17:00:58.932Z,99473.34
2022-09-26T17:03:29.688Z,99460.28
2022-09-26T17:05:58.339Z,99467.81
2022-09-26T17:08:31.069Z,99493.88
2022-09-26T17:11:01.999Z,99513.53
2022-09-26T17:13:33.194Z,99478.72
2022-09-26T17:16:02.444Z,99468.84
2022-09-26T17:18:32.702Z,99465.34
2022-09-26T17:20:59.814Z,99494.34
2022-09-26T17:23:39.891Z,99504.31
2022-09-26T17:26:16.446Z,99505.75
2022-09-26T17:28:51.298Z,99446.69
2022-09-26T17:31:21.612Z,99471.69
2022-09-26T17:33:53.846Z,99511.06
2022-09-26T17:36:26.614Z,99483.69
2022-09-26T17:39:34.394Z,99508.25
2022-09-26T17:42:03.347Z,99457.56
2022-09-26T17:45:19.179Z,99500.63
2022-09-26T17:47:45.811Z,99435.00
2022-09-26T17:50:31.790Z,99462.34
2022-09-26T17:53:02.368Z,99439.25
2022-09-26T17:55:33.176Z,99476.47
2022-09-26T17:58:00.229Z,99475.78
2022-09-26T18:00:32.161Z,99457.75
2022-09-26T18:03:04.077Z,99429.34
2022-09-26T18:13:45.889Z,99482.59
2022-09-26T18:16:28.518Z,99487.44
2022-09-26T18:19:14.716Z,99480.31
2022-09-26T18:21:45.866Z,99452.47
2022-09-26T18:27:27.008Z,99419.41
2022-09-26T18:29:53.710Z,99424.22
2022-09-26T18:32:37.610Z,99465.13
2022-09-26T18:35:04.562Z,99473.19
2022-09-26T18:37:31.094Z,99431.78
2022-09-26T18:40:02.977Z,99412.44
2022-09-26T18:42:32.122Z,99440.94
2022-09-26T18:45:05.694Z,99455.22
2022-09-26T18:47:46.592Z,99454.50
2022-09-26T18:50:37.792Z,99428.72
2022-09-26T18:53:46.385Z,99452.63
2022-09-26T18:57:27.681Z,99424.81
2022-09-26T18:59:56.127Z,99438.41
2022-09-26T19:03:11.073Z,99428.31
2022-09-26T19:05:44.396Z,99412.41
2022-09-26T19:08:38.393Z,99455.34
2022-09-26T19:12:10.687Z,99412.91
2022-09-26T19:17:21.347Z,99417.91
2022-09-26T19:19:48.078Z,99405.59
2022-09-26T19:22:17.603Z,99420.09
2022-09-26T19:24:51.421Z,99416.50
2022-09-26T19:27:32.237Z,99452.69
2022-09-26T19:30:17.561Z,99431.69
2022-09-26T19:33:03.922Z,99409.72
2022-09-26T19:35:42.669Z,99401.38
2022-09-26T19:38:29.089Z,99429.38
2022-09-26T20:20:28.898Z,99405.13
2022-09-26T20:23:01.062Z,99368.88
2022-09-26T20:25:46.438Z,99358.59
2022-09-26T20:28:15.448Z,99393.31
2022-09-26T20:30:51.464Z,99358.38
2022-09-26T20:33:22.436Z,99361.03
2022-09-26T20:35:55.471Z,99394.75
2022-09-26T20:38:38.812Z,99397.66
2022-09-26T20:41:33.377Z,99404.47
2022-09-26T20:44:04.493Z,99342.38
2022-09-26T20:46:38.776Z,99330.44
2022-09-26T20:49:20.841Z,99347.56
2022-09-26T20:51:48.517Z,99367.34
2022-09-26T20:54:25.468Z,99353.97
2022-09-26T20:56:53.609Z,99326.66
2022-09-26T20:59:20.515Z,99376.72
2022-09-26T21:01:49.488Z,99366.88
2022-09-26T21:04:17.428Z,99329.53
2022-09-26T21:06:45.166Z,99320.28
2022-09-26T21:09:20.088Z,99360.88
2022-09-26T21:11:50.381Z,99350.81
2022-09-26T21:14:18.374Z,99360.63
2022-09-26T21:16:48.318Z,99308.69
2022-09-26T21:19:20.808Z,99341.81
2022-09-26T21:21:47.375Z,99342.72
2022-09-26T21:24:24.270Z,99350.69
2022-09-26T21:26:56.221Z,99351.22
2022-09-26T21:29:22.710Z,99341.66
2022-09-26T21:31:52.263Z,99349.97
2022-09-26T21:34:42.011Z,99288.03
2022-09-26T21:37:10.872Z,99299.47
2022-09-26T21:40:12.428Z,99318.38
2022-09-26T21:42:42.405Z,99295.50
2022-09-26T21:45:14.544Z,99286.84
2022-09-26T21:47:56.201Z,99313.69
2022-09-26T21:57:53.998Z,99321.66
2022-09-26T22:01:01.296Z,99299.94
2022-09-26T22:03:56.765Z,99259.28
2022-09-26T22:13:05.146Z,99278.75
2022-09-26T22:15:31.860Z,99280.41
2022-09-26T22:18:04.251Z,99277.25
2022-09-26T22:20:31.225Z,99264.25
2022-09-26T22:22:57.878Z,99274.44
2022-09-26T22:25:30.389Z,99231.34
2022-09-26T22:27:59.084Z,99245.84
2022-09-26T22:30:25.694Z,99226.03
2022-09-26T22:32:54.639Z,99222.84
2022-09-26T22:35:22.319Z,99250.59
2022-09-26T22:37:48.891Z,99208.81
2022-09-26T22:40:15.735Z,99230.06
2022-09-26T22:42:42.477Z,99228.38
2022-09-26T22:45:11.266Z,99228.38
2022-09-26T22:48:16.299Z,99224.25
2022-09-26T22:50:44.133Z,99220.31
2022-09-26T22:53:34.495Z,99212.66
2022-09-26T22:56:06.958Z,99196.94
2022-09-26T22:58:38.967Z,99232.94
2022-09-26T23:01:16.018Z,99218.13
2022-09-26T23:03:47.443Z,99201.47
2022-09-26T23:06:21.815Z,99218.22
2022-09-26T23:08:51.733Z,99175.84
2022-09-26T23:11:22.837Z,99200.13
2022-09-26T23:13:57.244Z,99171.69
2022-09-26T23:16:30.018Z,99178.84
2022-09-26T23:23:41.824Z,99199.72
2022-09-26T23:26:20.727Z,99168.25
2022-09-26T23:28:51.747Z,99143.09
2022-09-26T23:31:18.865Z,99193.94
2022-09-26T23:33:50.680Z,99181.69
2022-09-26T23:36:21.601Z,99130.66
2022-09-26T23:38:50.933Z,99186.06
2022-09-26T23:41:33.211Z,99145.56
2022-09-26T23:44:17.948Z,99119.56
2022-09-26T23:46:55.348Z,99168.25
2022-09-26T23:49:25.052Z,99169.91
2022-09-26T23:52:01.113Z,99123.44
2022-09-26T23:54:27.964Z,99134.72
2022-09-26T23:59:35.895Z,99126.91
